sensor_id;sensor_type;location;lat;lon;timestamp;pressure;altitude;pressure_sealevel;temperature
69857;BMP280;57147;53.582;10.112;2023-04-30T00:04:09;102058.25;;;3.94
69857;BMP280;57147;53.582;10.112;2023-04-30T00:09:10;102065.19;;;3.89
69857;BMP280;57147;53.582;10.112;2023-04-30T00:14:11;102063.75;;;3.86
69857;BMP280;57147;53.582;10.112;2023-04-30T00:19:14;102071.66;;;3.80
69857;BMP280;57147;53.582;10.112;2023-04-30T00:24:14;102072.88;;;3.77
69857;BMP280;57147;53.582;10.112;2023-04-30T00:29:15;102074.91;;;3.75
69857;BMP280;57147;53.582;10.112;2023-04-30T00:34:18;102077.38;;;3.70
69857;BMP280;57147;53.582;10.112;2023-04-30T00:39:19;102079.78;;;3.65
69857;BMP280;57147;53.582;10.112;2023-04-30T00:44:20;102084.44;;;3.63
69857;BMP280;57147;53.582;10.112;2023-04-30T00:49:23;102086.66;;;3.59
69857;BMP280;57147;53.582;10.112;2023-04-30T00:54:24;102090.94;;;3.54
69857;BMP280;57147;53.582;10.112;2023-04-30T00:59:26;102048.38;;;3.26
69857;BMP280;57147;53.582;10.112;2023-04-30T01:04:29;102091.34;;;3.44
69857;BMP280;57147;53.582;10.112;2023-04-30T01:09:30;102094.19;;;3.49
69857;BMP280;57147;53.582;10.112;2023-04-30T01:14:39;102107.72;;;3.46
69857;BMP280;57147;53.582;10.112;2023-04-30T01:19:44;102102.88;;;3.37
69857;BMP280;57147;53.582;10.112;2023-04-30T01:24:58;102098.84;;;3.28
69857;BMP280;57147;53.582;10.112;2023-04-30T01:30:06;102084.72;;;3.22
69857;BMP280;57147;53.582;10.112;2023-04-30T01:35:07;102107.72;;;3.40
69857;BMP280;57147;53.582;10.112;2023-04-30T01:40:21;102105.72;;;3.35
69857;BMP280;57147;53.582;10.112;2023-04-30T01:45:35;102105.13;;;3.27
69857;BMP280;57147;53.582;10.112;2023-04-30T01:50:46;102101.28;;;3.22
69857;BMP280;57147;53.582;10.112;2023-04-30T01:55:50;102115.41;;;3.21
69857;BMP280;57147;53.582;10.112;2023-04-30T02:00:57;102124.69;;;3.17
69857;BMP280;57147;53.582;10.112;2023-04-30T02:05:58;102120.47;;;3.16
69857;BMP280;57147;53.582;10.112;2023-04-30T02:10:59;102129.97;;;3.04
69857;BMP280;57147;53.582;10.112;2023-04-30T02:16:02;102073.84;;;2.66
69857;BMP280;57147;53.582;10.112;2023-04-30T02:21:03;102119.03;;;2.81
69857;BMP280;57147;53.582;10.112;2023-04-30T02:26:03;102129.53;;;2.81
69857;BMP280;57147;53.582;10.112;2023-04-30T02:31:07;102126.31;;;2.79
69857;BMP280;57147;53.582;10.112;2023-04-30T02:36:07;102096.00;;;2.57
69857;BMP280;57147;53.582;10.112;2023-04-30T02:41:08;102101.06;;;2.51
69857;BMP280;57147;53.582;10.112;2023-04-30T02:46:11;102123.84;;;2.58
69857;BMP280;57147;53.582;10.112;2023-04-30T02:51:12;102112.09;;;2.40
69857;BMP280;57147;53.582;10.112;2023-04-30T02:56:12;102119.81;;;2.48
69857;BMP280;57147;53.582;10.112;2023-04-30T03:01:16;102087.47;;;2.28
69857;BMP280;57147;53.582;10.112;2023-04-30T03:06:16;102116.56;;;2.46
69857;BMP280;57147;53.582;10.112;2023-04-30T03:11:17;102085.88;;;2.27
69857;BMP280;57147;53.582;10.112;2023-04-30T03:16:20;102101.16;;;2.30
69857;BMP280;57147;53.582;10.112;2023-04-30T03:21:21;102106.03;;;2.33
69857;BMP280;57147;53.582;10.112;2023-04-30T03:26:22;102118.13;;;2.28
69857;BMP280;57147;53.582;10.112;2023-04-30T03:31:25;102110.66;;;2.18
69857;BMP280;57147;53.582;10.112;2023-04-30T03:36:25;102103.97;;;2.15
69857;BMP280;57147;53.582;10.112;2023-04-30T03:41:29;102101.13;;;2.10
69857;BMP280;57147;53.582;10.112;2023-04-30T03:46:32;102113.38;;;2.03
69857;BMP280;57147;53.582;10.112;2023-04-30T03:51:32;102105.13;;;2.00
69857;BMP280;57147;53.582;10.112;2023-04-30T03:56:33;102103.91;;;1.96
69857;BMP280;57147;53.582;10.112;2023-04-30T04:01:38;102095.56;;;1.86
69857;BMP280;57147;53.582;10.112;2023-04-30T04:06:38;102100.66;;;1.94
69857;BMP280;57147;53.582;10.112;2023-04-30T04:11:39;102099.44;;;1.90
69857;BMP280;57147;53.582;10.112;2023-04-30T04:16:43;102114.81;;;2.06
69857;BMP280;57147;53.582;10.112;2023-04-30T04:21:44;102111.81;;;2.09
69857;BMP280;57147;53.582;10.112;2023-04-30T04:26:44;102091.84;;;2.01
69857;BMP280;57147;53.582;10.112;2023-04-30T04:31:47;102125.59;;;2.24
69857;BMP280;57147;53.582;10.112;2023-04-30T04:36:48;102125.75;;;2.29
69857;BMP280;57147;53.582;10.112;2023-04-30T04:41:49;102125.78;;;2.36
69857;BMP280;57147;53.582;10.112;2023-04-30T04:46:52;102127.84;;;2.47
69857;BMP280;57147;53.582;10.112;2023-04-30T04:51:52;102094.75;;;2.39
69857;BMP280;57147;53.582;10.112;2023-04-30T04:56:53;102144.88;;;2.84
69857;BMP280;57147;53.582;10.112;2023-04-30T05:01:56;102156.63;;;3.01
69857;BMP280;57147;53.582;10.112;2023-04-30T05:06:56;102174.97;;;3.14
69857;BMP280;57147;53.582;10.112;2023-04-30T05:11:57;102194.19;;;3.35
69857;BMP280;57147;53.582;10.112;2023-04-30T05:17:01;102176.81;;;3.34
69857;BMP280;57147;53.582;10.112;2023-04-30T05:22:02;74090.38;;;3.45
69857;BMP280;57147;53.582;10.112;2023-04-30T05:27:13;102202.44;;;3.45
69857;BMP280;57147;53.582;10.112;2023-04-30T05:32:23;102190.53;;;3.62
69857;BMP280;57147;53.582;10.112;2023-04-30T05:37:24;102236.56;;;3.98
69857;BMP280;57147;53.582;10.112;2023-04-30T05:42:25;102206.66;;;3.85
69857;BMP280;57147;53.582;10.112;2023-04-30T05:47:44;102241.34;;;4.14
69857;BMP280;57147;53.582;10.112;2023-04-30T05:52:45;102232.19;;;4.23
69857;BMP280;57147;53.582;10.112;2023-04-30T05:57:45;102272.41;;;4.50
69857;BMP280;57147;53.582;10.112;2023-04-30T06:02:49;102278.06;;;4.53
69857;BMP280;57147;53.582;10.112;2023-04-30T06:07:49;102299.00;;;4.80
69857;BMP280;57147;53.582;10.112;2023-04-30T06:12:50;102293.72;;;4.80
69857;BMP280;57147;53.582;10.112;2023-04-30T06:17:53;102329.13;;;5.15
69857;BMP280;57147;53.582;10.112;2023-04-30T06:22:54;102324.22;;;5.25
69857;BMP280;57147;53.582;10.112;2023-04-30T06:27:55;102339.13;;;5.38
69857;BMP280;57147;53.582;10.112;2023-04-30T06:32:58;102351.53;;;5.62
69857;BMP280;57147;53.582;10.112;2023-04-30T06:37:59;102345.28;;;5.57
69857;BMP280;57147;53.582;10.112;2023-04-30T06:43:02;102362.41;;;5.72
69857;BMP280;57147;53.582;10.112;2023-04-30T06:48:05;102362.50;;;5.84
69857;BMP280;57147;53.582;10.112;2023-04-30T06:53:06;102362.69;;;5.83
69857;BMP280;57147;53.582;10.112;2023-04-30T06:58:07;102327.34;;;5.90
69857;BMP280;57147;53.582;10.112;2023-04-30T07:03:10;102387.06;;;6.46
69857;BMP280;57147;53.582;10.112;2023-04-30T07:08:11;102394.22;;;6.39
69857;BMP280;57147;53.582;10.112;2023-04-30T07:13:11;102397.38;;;6.47
69857;BMP280;57147;53.582;10.112;2023-04-30T07:18:14;102399.94;;;6.72
69857;BMP280;57147;53.582;10.112;2023-04-30T07:23:16;102358.72;;;6.71
69857;BMP280;57147;53.582;10.112;2023-04-30T07:28:17;102406.06;;;7.03
69857;BMP280;57147;53.582;10.112;2023-04-30T07:33:20;102393.47;;;6.86
69857;BMP280;57147;53.582;10.112;2023-04-30T07:38:20;102399.63;;;6.62
69857;BMP280;57147;53.582;10.112;2023-04-30T07:43:21;102414.28;;;6.95
69857;BMP280;57147;53.582;10.112;2023-04-30T07:48:24;102405.53;;;7.66
69857;BMP280;57147;53.582;10.112;2023-04-30T07:53:26;102402.34;;;7.87
69857;BMP280;57147;53.582;10.112;2023-04-30T07:58:26;102418.19;;;7.63
69857;BMP280;57147;53.582;10.112;2023-04-30T08:03:29;102403.22;;;7.57
69857;BMP280;57147;53.582;10.112;2023-04-30T08:08:30;102423.63;;;7.80
69857;BMP280;57147;53.582;10.112;2023-04-30T08:13:30;102414.72;;;7.51
69857;BMP280;57147;53.582;10.112;2023-04-30T08:18:34;102420.47;;;7.72
69857;BMP280;57147;53.582;10.112;2023-04-30T08:23:35;102414.88;;;7.80
69857;BMP280;57147;53.582;10.112;2023-04-30T08:28:35;102426.03;;;7.82
69857;BMP280;57147;53.582;10.112;2023-04-30T08:33:38;102424.00;;;8.07
69857;BMP280;57147;53.582;10.112;2023-04-30T08:38:39;102424.19;;;7.71
69857;BMP280;57147;53.582;10.112;2023-04-30T08:43:40;102421.53;;;7.71
69857;BMP280;57147;53.582;10.112;2023-04-30T08:48:44;102389.56;;;7.84
69857;BMP280;57147;53.582;10.112;2023-04-30T08:53:45;102411.09;;;7.99
69857;BMP280;57147;53.582;10.112;2023-04-30T08:58:47;102420.50;;;7.83
69857;BMP280;57147;53.582;10.112;2023-04-30T09:03:50;102428.78;;;8.33
69857;BMP280;57147;53.582;10.112;2023-04-30T09:08:51;102422.75;;;8.50
69857;BMP280;57147;53.582;10.112;2023-04-30T09:13:52;102422.91;;;8.43
69857;BMP280;57147;53.582;10.112;2023-04-30T09:18:56;102426.56;;;8.54
69857;BMP280;57147;53.582;10.112;2023-04-30T09:23:57;102423.06;;;8.65
69857;BMP280;57147;53.582;10.112;2023-04-30T09:28:59;102419.50;;;8.71
69857;BMP280;57147;53.582;10.112;2023-04-30T09:34:02;102417.13;;;9.14
69857;BMP280;57147;53.582;10.112;2023-04-30T09:39:07;102413.84;;;9.41
69857;BMP280;57147;53.582;10.112;2023-04-30T09:44:07;102390.38;;;9.33
69857;BMP280;57147;53.582;10.112;2023-04-30T09:49:28;102402.78;;;9.44
69857;BMP280;57147;53.582;10.112;2023-04-30T09:54:29;102397.81;;;9.47
69857;BMP280;57147;53.582;10.112;2023-04-30T09:59:32;102394.25;;;9.75
69857;BMP280;57147;53.582;10.112;2023-04-30T10:04:37;102396.75;;;9.65
69857;BMP280;57147;53.582;10.112;2023-04-30T10:09:39;102386.84;;;9.77
69857;BMP280;57147;53.582;10.112;2023-04-30T10:14:48;102374.84;;;9.91
69857;BMP280;57147;53.582;10.112;2023-04-30T10:19:56;102378.53;;;10.56
69857;BMP280;57147;53.582;10.112;2023-04-30T10:24:58;102369.28;;;10.15
69857;BMP280;57147;53.582;10.112;2023-04-30T10:30:01;102377.91;;;10.49
69857;BMP280;57147;53.582;10.112;2023-04-30T10:35:09;102354.34;;;10.30
69857;BMP280;57147;53.582;10.112;2023-04-30T10:40:12;102379.00;;;10.75
69857;BMP280;57147;53.582;10.112;2023-04-30T10:45:14;102361.63;;;10.99
69857;BMP280;57147;53.582;10.112;2023-04-30T10:50:22;102349.22;;;11.41
69857;BMP280;57147;53.582;10.112;2023-04-30T10:55:23;102345.94;;;11.29
69857;BMP280;57147;53.582;10.112;2023-04-30T11:00:25;102339.78;;;10.92
69857;BMP280;57147;53.582;10.112;2023-04-30T11:05:38;102343.16;;;11.14
69857;BMP280;57147;53.582;10.112;2023-04-30T11:10:56;102345.13;;;11.29
69857;BMP280;57147;53.582;10.112;2023-04-30T11:16:01;102338.81;;;11.87
69857;BMP280;57147;53.582;10.112;2023-04-30T11:21:07;102338.88;;;12.07
69857;BMP280;57147;53.582;10.112;2023-04-30T11:26:08;102333.59;;;12.17
69857;BMP280;57147;53.582;10.112;2023-04-30T11:31:09;102341.03;;;12.10
69857;BMP280;57147;53.582;10.112;2023-04-30T11:36:13;102336.25;;;12.22
69857;BMP280;57147;53.582;10.112;2023-04-30T11:41:13;102327.75;;;12.25
69857;BMP280;57147;53.582;10.112;2023-04-30T11:46:15;102318.19;;;13.05
69857;BMP280;57147;53.582;10.112;2023-04-30T11:51:19;102324.41;;;13.55
69857;BMP280;57147;53.582;10.112;2023-04-30T11:56:21;102326.03;;;13.51
69857;BMP280;57147;53.582;10.112;2023-04-30T12:01:25;102312.31;;;12.73
69857;BMP280;57147;53.582;10.112;2023-04-30T12:06:29;102312.84;;;12.65
69857;BMP280;57147;53.582;10.112;2023-04-30T12:11:30;102301.06;;;13.27
69857;BMP280;57147;53.582;10.112;2023-04-30T12:16:39;102303.63;;;13.52
69857;BMP280;57147;53.582;10.112;2023-04-30T12:21:44;102279.97;;;13.25
69857;BMP280;57147;53.582;10.112;2023-04-30T12:26:45;102289.72;;;13.55
69857;BMP280;57147;53.582;10.112;2023-04-30T12:31:48;102295.00;;;13.75
69857;BMP280;57147;53.582;10.112;2023-04-30T12:36:51;102282.47;;;13.71
69857;BMP280;57147;53.582;10.112;2023-04-30T12:41:52;102262.16;;;14.14
69857;BMP280;57147;53.582;10.112;2023-04-30T12:46:54;102283.34;;;14.68
69857;BMP280;57147;53.582;10.112;2023-04-30T12:52:03;102275.63;;;14.66
69857;BMP280;57147;53.582;10.112;2023-04-30T12:57:08;102263.16;;;15.09
69857;BMP280;57147;53.582;10.112;2023-04-30T13:02:10;102263.53;;;15.40
69857;BMP280;57147;53.582;10.112;2023-04-30T13:07:13;102260.34;;;14.96
69857;BMP280;57147;53.582;10.112;2023-04-30T13:12:23;102261.16;;;14.67
69857;BMP280;57147;53.582;10.112;2023-04-30T13:17:23;102246.97;;;14.72
69857;BMP280;57147;53.582;10.112;2023-04-30T13:22:27;102237.41;;;14.89
69857;BMP280;57147;53.582;10.112;2023-04-30T13:27:30;102243.19;;;15.95
69857;BMP280;57147;53.582;10.112;2023-04-30T13:32:31;102235.78;;;16.66
69857;BMP280;57147;53.582;10.112;2023-04-30T13:37:34;102225.06;;;16.66
69857;BMP280;57147;53.582;10.112;2023-04-30T13:42:36;102221.34;;;16.34
69857;BMP280;57147;53.582;10.112;2023-04-30T13:47:37;102216.84;;;16.16
69857;BMP280;57147;53.582;10.112;2023-04-30T13:52:41;102212.84;;;16.59
69857;BMP280;57147;53.582;10.112;2023-04-30T13:57:42;102208.09;;;17.06
69857;BMP280;57147;53.582;10.112;2023-04-30T14:02:43;102199.75;;;17.66
69857;BMP280;57147;53.582;10.112;2023-04-30T14:07:46;102189.50;;;17.45
69857;BMP280;57147;53.582;10.112;2023-04-30T14:12:47;102197.06;;;17.43
69857;BMP280;57147;53.582;10.112;2023-04-30T14:17:47;102181.63;;;17.13
69857;BMP280;57147;53.582;10.112;2023-04-30T14:22:54;102187.06;;;16.86
69857;BMP280;57147;53.582;10.112;2023-04-30T14:27:54;102169.13;;;17.44
69857;BMP280;57147;53.582;10.112;2023-04-30T14:32:55;102176.72;;;17.51
69857;BMP280;57147;53.582;10.112;2023-04-30T14:37:58;102179.13;;;18.14
69857;BMP280;57147;53.582;10.112;2023-04-30T14:42:59;102172.34;;;17.55
69857;BMP280;57147;53.582;10.112;2023-04-30T14:47:59;102168.25;;;17.80
69857;BMP280;57147;53.582;10.112;2023-04-30T14:53:03;102167.59;;;18.14
69857;BMP280;57147;53.582;10.112;2023-04-30T14:58:04;102139.88;;;18.44
69857;BMP280;57147;53.582;10.112;2023-04-30T15:03:05;102158.72;;;19.21
69857;BMP280;57147;53.582;10.112;2023-04-30T15:08:08;102123.06;;;18.30
69857;BMP280;57147;53.582;10.112;2023-04-30T15:13:08;102143.28;;;18.27
69857;BMP280;57147;53.582;10.112;2023-04-30T15:18:09;102148.00;;;19.04
69857;BMP280;57147;53.582;10.112;2023-04-30T15:23:12;102143.59;;;17.33
69857;BMP280;57147;53.582;10.112;2023-04-30T15:28:13;102143.19;;;16.68
69857;BMP280;57147;53.582;10.112;2023-04-30T15:33:14;102136.13;;;17.08
69857;BMP280;57147;53.582;10.112;2023-04-30T15:38:17;102141.88;;;17.15
69857;BMP280;57147;53.582;10.112;2023-04-30T15:43:18;102129.38;;;16.75
69857;BMP280;57147;53.582;10.112;2023-04-30T15:48:19;102127.69;;;16.79
69857;BMP280;57147;53.582;10.112;2023-04-30T15:53:22;102127.41;;;17.02
69857;BMP280;57147;53.582;10.112;2023-04-30T15:58:23;102118.75;;;17.28
69857;BMP280;57147;53.582;10.112;2023-04-30T16:03:24;102117.59;;;17.20
69857;BMP280;57147;53.582;10.112;2023-04-30T16:08:27;102106.97;;;17.15
69857;BMP280;57147;53.582;10.112;2023-04-30T16:13:28;102103.75;;;17.49
69857;BMP280;57147;53.582;10.112;2023-04-30T16:18:28;102113.53;;;17.76
69857;BMP280;57147;53.582;10.112;2023-04-30T16:23:31;102103.75;;;17.80
69857;BMP280;57147;53.582;10.112;2023-04-30T16:28:36;102100.22;;;17.71
69857;BMP280;57147;53.582;10.112;2023-04-30T16:33:36;102068.50;;;17.50
69857;BMP280;57147;53.582;10.112;2023-04-30T16:38:40;102096.50;;;17.80
69857;BMP280;57147;53.582;10.112;2023-04-30T16:43:41;102092.56;;;17.86
69857;BMP280;57147;53.582;10.112;2023-04-30T16:48:41;102094.91;;;17.88
69857;BMP280;57147;53.582;10.112;2023-04-30T16:53:45;102084.16;;;17.88
69857;BMP280;57147;53.582;10.112;2023-04-30T16:58:45;102078.25;;;17.69
69857;BMP280;57147;53.582;10.112;2023-04-30T17:03:46;102071.44;;;17.63
69857;BMP280;57147;53.582;10.112;2023-04-30T17:08:49;102071.31;;;17.68
69857;BMP280;57147;53.582;10.112;2023-04-30T17:13:50;102069.25;;;17.42
69857;BMP280;57147;53.582;10.112;2023-04-30T17:18:50;102069.25;;;17.42
69857;BMP280;57147;53.582;10.112;2023-04-30T17:23:53;102061.31;;;17.37
69857;BMP280;57147;53.582;10.112;2023-04-30T17:28:54;102062.25;;;17.33
69857;BMP280;57147;53.582;10.112;2023-04-30T17:33:55;102061.44;;;17.32
69857;BMP280;57147;53.582;10.112;2023-04-30T17:38:58;102059.34;;;17.21
69857;BMP280;57147;53.582;10.112;2023-04-30T17:43:58;102058.28;;;16.63
69857;BMP280;57147;53.582;10.112;2023-04-30T17:48:59;102057.59;;;16.17
69857;BMP280;57147;53.582;10.112;2023-04-30T17:54:02;102055.06;;;15.52
69857;BMP280;57147;53.582;10.112;2023-04-30T17:59:03;102062.69;;;15.45
69857;BMP280;57147;53.582;10.112;2023-04-30T18:04:06;102069.22;;;15.39
69857;BMP280;57147;53.582;10.112;2023-04-30T18:09:09;102051.84;;;14.85
69857;BMP280;57147;53.582;10.112;2023-04-30T18:14:10;102067.50;;;14.73
69857;BMP280;57147;53.582;10.112;2023-04-30T18:19:11;102062.59;;;14.38
69857;BMP280;57147;53.582;10.112;2023-04-30T18:24:14;102073.47;;;13.99
69857;BMP280;57147;53.582;10.112;2023-04-30T18:29:16;102080.88;;;13.73
69857;BMP280;57147;53.582;10.112;2023-04-30T18:34:16;102051.41;;;13.21
69857;BMP280;57147;53.582;10.112;2023-04-30T18:39:20;102061.13;;;12.96
69857;BMP280;57147;53.582;10.112;2023-04-30T18:44:27;102043.69;;;12.65
69857;BMP280;57147;53.582;10.112;2023-04-30T18:49:28;102078.41;;;12.50
69857;BMP280;57147;53.582;10.112;2023-04-30T18:54:32;102067.28;;;12.17
69857;BMP280;57147;53.582;10.112;2023-04-30T18:59:34;102074.22;;;12.03
69857;BMP280;57147;53.582;10.112;2023-04-30T19:04:34;102079.84;;;11.76
69857;BMP280;57147;53.582;10.112;2023-04-30T19:09:38;102093.34;;;11.44
69857;BMP280;57147;53.582;10.112;2023-04-30T19:14:38;102087.44;;;11.27
69857;BMP280;57147;53.582;10.112;2023-04-30T19:19:39;102090.03;;;11.07
69857;BMP280;57147;53.582;10.112;2023-04-30T19:24:42;102074.53;;;10.79
69857;BMP280;57147;53.582;10.112;2023-04-30T19:29:44;102087.25;;;10.71
69857;BMP280;57147;53.582;10.112;2023-04-30T19:34:44;102090.94;;;10.70
69857;BMP280;57147;53.582;10.112;2023-04-30T19:39:50;102084.47;;;10.51
69857;BMP280;57147;53.582;10.112;2023-04-30T19:44:50;102097.06;;;10.29
69857;BMP280;57147;53.582;10.112;2023-04-30T19:49:52;102053.41;;;9.78
69857;BMP280;57147;53.582;10.112;2023-04-30T19:54:58;102030.09;;;9.53
69857;BMP280;57147;53.582;10.112;2023-04-30T19:59:58;102078.22;;;9.67
69857;BMP280;57147;53.582;10.112;2023-04-30T20:10:33;102024.63;;;9.11
69857;BMP280;57147;53.582;10.112;2023-04-30T20:15:34;102068.28;;;9.30
69857;BMP280;57147;53.582;10.112;2023-04-30T20:20:35;102072.13;;;9.18
69857;BMP280;57147;53.582;10.112;2023-04-30T20:25:44;102068.25;;;9.03
69857;BMP280;57147;53.582;10.112;2023-04-30T20:30:45;102053.19;;;8.87
69857;BMP280;57147;53.582;10.112;2023-04-30T20:35:46;102060.34;;;8.87
69857;BMP280;57147;53.582;10.112;2023-04-30T20:40:49;102050.16;;;8.79
69857;BMP280;57147;53.582;10.112;2023-04-30T20:45:49;102046.91;;;8.71
69857;BMP280;57147;53.582;10.112;2023-04-30T20:50:50;102043.06;;;8.62
69857;BMP280;57147;53.582;10.112;2023-04-30T20:55:53;102034.72;;;8.54
69857;BMP280;57147;53.582;10.112;2023-04-30T21:00:55;101981.78;;;8.15
69857;BMP280;57147;53.582;10.112;2023-04-30T21:05:55;101991.88;;;8.18
69857;BMP280;57147;53.582;10.112;2023-04-30T21:10:58;102001.34;;;8.14
69857;BMP280;57147;53.582;10.112;2023-04-30T21:15:59;102000.44;;;7.92
69857;BMP280;57147;53.582;10.112;2023-04-30T21:21:03;102006.75;;;7.91
69857;BMP280;57147;53.582;10.112;2023-04-30T21:26:06;102002.44;;;7.85
69857;BMP280;57147;53.582;10.112;2023-04-30T21:31:08;101996.97;;;7.75
69857;BMP280;57147;53.582;10.112;2023-04-30T21:36:08;102003.69;;;7.66
69857;BMP280;57147;53.582;10.112;2023-04-30T21:41:14;101994.06;;;7.59
69857;BMP280;57147;53.582;10.112;2023-04-30T21:46:15;101984.44;;;7.53
69857;BMP280;57147;53.582;10.112;2023-04-30T21:51:15;101982.19;;;7.45
69857;BMP280;57147;53.582;10.112;2023-04-30T21:56:19;101972.09;;;7.42
69857;BMP280;57147;53.582;10.112;2023-04-30T22:01:19;101969.38;;;7.37
69857;BMP280;57147;53.582;10.112;2023-04-30T22:06:20;101936.63;;;7.10
69857;BMP280;57147;53.582;10.112;2023-04-30T22:11:23;101958.84;;;7.26
69857;BMP280;57147;53.582;10.112;2023-04-30T22:16:24;101958.25;;;7.23
69857;BMP280;57147;53.582;10.112;2023-04-30T22:21:24;101950.56;;;7.22
69857;BMP280;57147;53.582;10.112;2023-04-30T22:26:27;101952.66;;;7.20
69857;BMP280;57147;53.582;10.112;2023-04-30T22:31:28;101924.25;;;6.99
69857;BMP280;57147;53.582;10.112;2023-04-30T22:36:29;101934.13;;;6.92
69857;BMP280;57147;53.582;10.112;2023-04-30T22:41:32;101940.94;;;6.88
69857;BMP280;57147;53.582;10.112;2023-04-30T22:46:33;101963.75;;;6.94
69857;BMP280;57147;53.582;10.112;2023-04-30T22:51:34;101962.50;;;6.84
69857;BMP280;57147;53.582;10.112;2023-04-30T22:56:37;101954.59;;;6.73
69857;BMP280;57147;53.582;10.112;2023-04-30T23:01:38;101950.03;;;6.68
69857;BMP280;57147;53.582;10.112;2023-04-30T23:06:39;101947.28;;;6.63
69857;BMP280;57147;53.582;10.112;2023-04-30T23:11:42;101914.41;;;6.42
69857;BMP280;57147;53.582;10.112;2023-04-30T23:16:42;101931.63;;;6.45
69857;BMP280;57147;53.582;10.112;2023-04-30T23:21:43;101928.28;;;6.38
69857;BMP280;57147;53.582;10.112;2023-04-30T23:26:46;101872.66;;;5.93
69857;BMP280;57147;53.582;10.112;2023-04-30T23:31:47;101911.31;;;6.10
69857;BMP280;57147;53.582;10.112;2023-04-30T23:36:47;101913.13;;;5.98
69857;BMP280;57147;53.582;10.112;2023-04-30T23:41:50;101902.44;;;5.93
69857;BMP280;57147;53.582;10.112;2023-04-30T23:46:51;101890.44;;;5.97
69857;BMP280;57147;53.582;10.112;2023-04-30T23:51:51;101884.78;;;5.82
69857;BMP280;57147;53.582;10.112;2023-04-30T23:56:55;101859.00;;;5.61
